createdAt,value
2017-03-25T00:00:41.213Z,1.62
2017-03-25T00:01:41.515Z,1.50
2017-03-25T00:02:41.820Z,1.98
2017-03-25T00:03:42.187Z,1.67
2017-03-25T00:04:42.480Z,1.72
2017-03-25T00:05:42.507Z,1.65
2017-03-25T00:06:42.629Z,1.87
2017-03-25T00:07:42.700Z,2.33
2017-03-25T00:08:47.477Z,1.77
2017-03-25T00:09:47.790Z,1.52
2017-03-25T00:10:48.690Z,1.55
2017-03-25T00:11:49.011Z,1.80
2017-03-25T00:12:49.224Z,1.88
2017-03-25T00:13:49.543Z,2.08
2017-03-25T00:14:49.672Z,2.30
2017-03-25T00:15:49.909Z,1.95
2017-03-25T00:16:49.826Z,1.55
2017-03-25T00:17:49.782Z,2.38
2017-03-25T00:18:50.032Z,1.92
2017-03-25T00:19:51.003Z,1.70
2017-03-25T00:20:51.310Z,2.13
2017-03-25T00:21:51.864Z,1.50
2017-03-25T00:22:52.079Z,1.78
2017-03-25T00:23:52.329Z,1.40
2017-03-25T00:24:52.539Z,1.83
2017-03-25T00:25:52.641Z,1.57
2017-03-25T00:26:53.842Z,1.75
2017-03-25T00:27:54.235Z,2.28
2017-03-25T00:28:54.440Z,2.33
2017-03-25T00:29:54.579Z,1.48
2017-03-25T00:30:54.822Z,1.62
2017-03-25T00:31:54.973Z,2.05
2017-03-25T00:32:55.241Z,1.67
2017-03-25T00:33:55.527Z,1.33
2017-03-25T00:34:55.903Z,1.70
2017-03-25T00:35:56.164Z,1.60
2017-03-25T00:36:57.036Z,1.47
2017-03-25T00:37:56.936Z,1.58
2017-03-25T00:38:57.166Z,1.65
2017-03-25T00:39:57.365Z,1.40
2017-03-25T00:40:57.271Z,1.48
2017-03-25T00:41:57.355Z,1.77
2017-03-25T00:42:58.070Z,1.50
2017-03-25T00:43:58.103Z,1.50
2017-03-25T00:44:58.032Z,1.78
2017-03-25T00:45:58.074Z,1.53
2017-03-25T00:46:58.041Z,1.83
2017-03-25T00:47:58.046Z,1.53
2017-03-25T00:48:58.171Z,1.25
2017-03-25T00:49:58.475Z,1.55
2017-03-25T00:50:58.741Z,2.28
2017-03-25T00:51:59.055Z,2.05
2017-03-25T00:52:59.993Z,1.43
2017-03-25T00:54:00.220Z,1.63
2017-03-25T00:55:00.398Z,1.48
2017-03-25T00:56:00.559Z,2.52
2017-03-25T00:57:01.030Z,1.70
2017-03-25T00:58:01.336Z,1.70
2017-03-25T00:59:01.612Z,1.55
2017-03-25T01:00:01.785Z,1.65
2017-03-25T01:01:02.057Z,1.30
2017-03-25T01:02:03.145Z,1.50
2017-03-25T01:03:03.403Z,1.70
2017-03-25T01:04:03.388Z,1.80
2017-03-25T01:05:03.603Z,1.53
2017-03-25T01:06:03.734Z,2.25
2017-03-25T01:07:04.029Z,1.52
2017-03-25T01:08:04.281Z,1.55
2017-03-25T01:09:04.486Z,1.73
2017-03-25T01:10:04.738Z,1.93
2017-03-25T01:11:05.059Z,1.50
2017-03-25T01:12:05.223Z,1.57
2017-03-25T01:13:05.613Z,2.10
2017-03-25T01:14:05.928Z,1.90
2017-03-25T01:15:06.144Z,2.60
2017-03-25T01:16:07.354Z,1.63
2017-03-25T01:17:07.467Z,1.42
2017-03-25T01:18:07.859Z,1.20
2017-03-25T01:19:08.112Z,2.10
2017-03-25T01:20:08.437Z,2.00
2017-03-25T01:21:09.212Z,1.95
2017-03-25T01:22:09.386Z,1.67
2017-03-25T01:23:09.941Z,1.63
2017-03-25T01:24:10.058Z,1.50
2017-03-25T01:25:10.172Z,1.78
2017-03-25T01:26:10.404Z,2.45
2017-03-25T01:27:10.351Z,2.50
2017-03-25T01:28:10.461Z,2.08
2017-03-25T01:29:10.621Z,1.38
2017-03-25T01:30:10.810Z,1.97
2017-03-25T01:31:10.907Z,1.88
2017-03-25T01:32:11.195Z,1.85
2017-03-25T01:33:11.416Z,2.08
2017-03-25T01:34:11.740Z,2.00
2017-03-25T01:35:11.843Z,1.92
2017-03-25T01:36:12.016Z,1.52
2017-03-25T01:37:12.518Z,1.87
2017-03-25T01:38:12.754Z,1.77
2017-03-25T01:39:12.926Z,1.42
2017-03-25T01:40:13.327Z,1.65
2017-03-25T01:41:13.659Z,1.98
2017-03-25T01:42:13.668Z,2.13
2017-03-25T01:43:13.864Z,1.38
2017-03-25T01:44:14.076Z,2.17
2017-03-25T01:45:14.281Z,2.07
2017-03-25T01:46:14.457Z,2.22
2017-03-25T01:47:14.630Z,1.70
2017-03-25T01:48:15.088Z,1.97
2017-03-25T01:49:15.333Z,1.57
2017-03-25T01:50:15.281Z,1.50
2017-03-25T01:51:15.508Z,1.92
2017-03-25T01:52:15.702Z,1.60
2017-03-25T01:53:15.918Z,2.08
2017-03-25T01:54:16.039Z,1.72
2017-03-25T01:55:16.151Z,1.63
2017-03-25T01:56:26.844Z,2.70
2017-03-25T01:57:27.123Z,1.70
2017-03-25T01:58:27.282Z,1.55
2017-03-25T01:59:27.478Z,1.57
2017-03-25T02:00:27.518Z,2.17
2017-03-25T02:01:27.623Z,2.22
2017-03-25T02:02:27.715Z,1.50
2017-03-25T02:03:27.844Z,1.80
2017-03-25T02:04:28.039Z,2.10
2017-03-25T02:05:28.352Z,2.10
2017-03-25T02:06:28.609Z,1.85
2017-03-25T02:07:28.759Z,1.63
2017-03-25T02:08:28.878Z,1.48
2017-03-25T02:09:29.126Z,1.50
2017-03-25T02:10:29.431Z,1.93
2017-03-25T02:11:29.772Z,1.63
2017-03-25T02:12:30.988Z,1.52
2017-03-25T02:13:31.356Z,1.98
2017-03-25T02:14:31.490Z,1.52
2017-03-25T02:15:31.782Z,1.77
2017-03-25T02:16:31.952Z,1.30
2017-03-25T02:17:32.656Z,1.62
2017-03-25T02:18:32.896Z,1.70
2017-03-25T02:19:33.896Z,1.98
2017-03-25T02:20:34.281Z,2.58
2017-03-25T02:21:34.474Z,1.18
2017-03-25T02:22:34.591Z,1.53
2017-03-25T02:23:34.803Z,1.57
2017-03-25T02:24:34.881Z,1.58
2017-03-25T02:25:35.124Z,2.02
2017-03-25T02:26:35.261Z,1.45
2017-03-25T02:27:35.658Z,1.85
2017-03-25T02:28:36.076Z,1.90
2017-03-25T02:29:36.379Z,2.13
2017-03-25T02:30:36.503Z,1.75
2017-03-25T02:31:36.805Z,3.10
2017-03-25T02:32:36.919Z,1.63
2017-03-25T02:33:37.224Z,1.70
2017-03-25T02:34:37.512Z,1.77
2017-03-25T02:35:37.714Z,1.48
2017-03-25T02:36:38.583Z,1.92
2017-03-25T02:37:38.823Z,1.80
2017-03-25T02:38:40.003Z,1.48
2017-03-25T02:39:40.137Z,1.67
2017-03-25T02:40:40.316Z,1.37
2017-03-25T02:41:40.421Z,1.67
2017-03-25T02:42:41.254Z,1.57
2017-03-25T02:43:41.427Z,2.00
2017-03-25T02:44:41.709Z,1.73
2017-03-25T02:45:41.707Z,1.78
2017-03-25T02:46:41.892Z,1.52
2017-03-25T02:47:42.136Z,1.70
2017-03-25T02:48:42.337Z,1.43
2017-03-25T02:49:42.547Z,2.63
2017-03-25T02:50:42.891Z,1.30
2017-03-25T02:51:43.106Z,1.60
2017-03-25T02:52:43.373Z,1.55
2017-03-25T02:53:46.781Z,1.98
2017-03-25T02:54:46.763Z,1.75
2017-03-25T02:55:46.964Z,1.93
2017-03-25T02:56:47.220Z,1.32
2017-03-25T02:57:47.656Z,1.63
2017-03-25T02:58:47.868Z,2.55
2017-03-25T02:59:48.116Z,1.75
2017-03-25T03:00:48.468Z,1.83
2017-03-25T03:01:48.640Z,1.65
2017-03-25T03:02:48.705Z,1.60
2017-03-25T03:03:49.151Z,1.43
2017-03-25T03:04:50.334Z,1.53
2017-03-25T03:05:50.467Z,1.78
2017-03-25T03:06:50.874Z,1.70
2017-03-25T03:07:51.109Z,1.62
2017-03-25T03:08:51.257Z,1.27
2017-03-25T03:09:51.385Z,1.38
2017-03-25T03:10:51.655Z,1.33
2017-03-25T03:11:51.930Z,0.88
2017-03-25T03:12:52.332Z,1.57
2017-03-25T03:13:52.593Z,1.88
2017-03-25T03:14:52.940Z,1.70
2017-03-25T03:15:53.063Z,1.83
2017-03-25T03:16:53.425Z,1.77
2017-03-25T03:17:53.765Z,2.08
2017-03-25T03:18:54.219Z,1.23
2017-03-25T03:19:54.535Z,1.77
2017-03-25T03:20:54.632Z,1.90
2017-03-25T03:21:54.659Z,1.50
2017-03-25T03:22:55.073Z,1.67
2017-03-25T03:23:55.313Z,1.92
2017-03-25T03:24:55.618Z,1.30
2017-03-25T03:25:55.842Z,1.23
2017-03-25T03:26:56.182Z,1.53
2017-03-25T03:27:56.120Z,1.57
2017-03-25T03:28:56.248Z,1.45
2017-03-25T03:29:56.584Z,1.78
2017-03-25T03:30:57.389Z,1.43
2017-03-25T03:31:57.506Z,1.68
2017-03-25T03:32:57.614Z,1.90
2017-03-25T03:33:57.687Z,1.47
2017-03-25T03:35:01.811Z,1.53
2017-03-25T03:36:02.068Z,1.47
2017-03-25T03:37:02.339Z,1.47
2017-03-25T03:38:02.796Z,1.65
2017-03-25T03:39:03.132Z,1.50
2017-03-25T03:40:03.379Z,2.05
2017-03-25T03:41:03.618Z,1.72
2017-03-25T03:42:03.955Z,1.62
2017-03-25T03:43:04.071Z,1.42
2017-03-25T03:44:04.512Z,2.07
2017-03-25T03:45:05.932Z,1.92
2017-03-25T03:46:06.160Z,2.08
2017-03-25T03:47:06.371Z,1.50
2017-03-25T03:48:06.586Z,1.40
2017-03-25T03:49:06.809Z,1.75
2017-03-25T03:50:07.023Z,2.02
2017-03-25T03:51:07.184Z,1.55
2017-03-25T03:52:07.336Z,1.75
2017-03-25T03:53:07.581Z,1.50
2017-03-25T03:54:07.795Z,1.70
2017-03-25T03:55:08.025Z,2.07
2017-03-25T03:56:08.370Z,1.63
2017-03-25T03:57:08.555Z,1.62
2017-03-25T03:58:09.420Z,1.67
2017-03-25T03:59:09.745Z,1.63
2017-03-25T04:00:10.020Z,2.25
2017-03-25T04:01:10.404Z,1.43
2017-03-25T04:02:10.769Z,1.83
2017-03-25T04:03:11.058Z,2.07
2017-03-25T04:04:11.171Z,1.62
2017-03-25T04:05:11.400Z,1.97
2017-03-25T04:06:11.623Z,1.55
2017-03-25T04:07:11.795Z,1.70
2017-03-25T04:08:11.962Z,1.77
2017-03-25T04:09:12.259Z,1.93
2017-03-25T04:10:12.469Z,1.60
2017-03-25T04:11:12.674Z,1.90
2017-03-25T04:12:12.790Z,1.63
2017-03-25T04:13:13.609Z,1.90
2017-03-25T04:14:13.691Z,1.67
2017-03-25T04:15:13.836Z,2.60
2017-03-25T04:16:14.046Z,1.65
2017-03-25T04:17:14.307Z,2.13
2017-03-25T04:18:15.331Z,1.67
2017-03-25T04:19:16.207Z,1.58
2017-03-25T04:20:16.212Z,1.65
2017-03-25T04:21:16.403Z,1.43
2017-03-25T04:22:16.752Z,2.08
2017-03-25T04:23:17.118Z,1.45
2017-03-25T04:24:17.302Z,1.68
2017-03-25T04:25:17.623Z,1.45
2017-03-25T04:26:17.783Z,1.80
2017-03-25T04:27:17.926Z,1.82
2017-03-25T04:28:18.081Z,1.88
2017-03-25T04:29:17.471Z,2.35
2017-03-25T04:30:18.370Z,1.48
2017-03-25T04:31:19.359Z,1.48
2017-03-25T04:32:19.762Z,3.07
2017-03-25T04:33:20.051Z,1.93
2017-03-25T04:34:20.692Z,1.50
2017-03-25T04:35:20.903Z,1.43
2017-03-25T04:36:21.040Z,1.75
2017-03-25T04:37:21.250Z,1.58
2017-03-25T04:38:21.389Z,1.27
2017-03-25T04:39:21.691Z,1.83
2017-03-25T04:40:21.650Z,1.83
2017-03-25T04:41:21.875Z,2.02
2017-03-25T04:42:21.986Z,1.55
2017-03-25T04:43:22.112Z,1.73
2017-03-25T04:44:22.472Z,2.07
2017-03-25T04:45:22.728Z,1.98
2017-03-25T04:46:25.672Z,2.15
2017-03-25T04:47:26.010Z,1.35
2017-03-25T04:48:26.119Z,1.98
2017-03-25T04:49:26.235Z,1.70
2017-03-25T04:50:26.520Z,1.67
2017-03-25T04:51:26.656Z,1.95
2017-03-25T04:52:26.770Z,2.00
2017-03-25T04:53:27.050Z,1.73
2017-03-25T04:54:27.219Z,1.28
2017-03-25T04:55:27.318Z,1.67
2017-03-25T04:56:27.403Z,1.15
2017-03-25T04:57:37.309Z,1.63
2017-03-25T04:58:37.463Z,1.97
2017-03-25T04:59:37.864Z,1.48
2017-03-25T05:00:38.077Z,1.65
2017-03-25T05:01:38.222Z,1.35
2017-03-25T05:02:38.475Z,2.70
2017-03-25T05:03:38.640Z,1.75
2017-03-25T05:04:42.739Z,1.75
2017-03-25T05:05:42.704Z,1.40
2017-03-25T05:06:42.873Z,1.30
2017-03-25T05:07:43.117Z,1.70
2017-03-25T05:08:43.387Z,3.23
2017-03-25T05:09:43.562Z,1.83
2017-03-25T05:10:43.939Z,1.45
2017-03-25T05:11:44.332Z,2.20
2017-03-25T05:12:44.520Z,2.07
2017-03-25T05:13:44.937Z,1.72
2017-03-25T05:14:45.334Z,1.85
2017-03-25T05:15:45.409Z,1.63
2017-03-25T05:16:51.567Z,1.55
2017-03-25T05:17:51.887Z,1.85
2017-03-25T05:18:52.225Z,1.50
2017-03-25T05:19:52.412Z,1.93
2017-03-25T05:20:52.664Z,1.78
2017-03-25T05:21:53.041Z,1.55
2017-03-25T05:22:53.184Z,1.93
2017-03-25T05:23:53.302Z,1.75
2017-03-25T05:24:53.623Z,1.75
2017-03-25T05:25:53.815Z,1.70
2017-03-25T05:26:53.933Z,1.42
2017-03-25T05:27:54.103Z,1.52
2017-03-25T05:28:54.402Z,1.58
2017-03-25T05:29:54.526Z,1.63
2017-03-25T05:30:54.690Z,1.55
2017-03-25T05:31:54.831Z,1.30
2017-03-25T05:32:54.992Z,1.50
2017-03-25T05:33:55.165Z,1.42
2017-03-25T05:34:55.644Z,1.87
2017-03-25T05:35:55.916Z,1.35
2017-03-25T05:36:56.150Z,2.15
2017-03-25T05:37:56.350Z,1.37
2017-03-25T05:38:56.647Z,1.70
2017-03-25T05:39:56.864Z,1.83
2017-03-25T05:40:57.097Z,1.85
2017-03-25T05:41:57.221Z,2.15
2017-03-25T05:42:57.393Z,1.50
2017-03-25T05:43:57.593Z,1.68
2017-03-25T05:44:57.580Z,1.50
2017-03-25T05:45:57.574Z,1.87
2017-03-25T05:46:57.611Z,1.57
2017-03-25T05:47:57.648Z,2.15
2017-03-25T05:48:57.657Z,1.63
2017-03-25T05:49:57.852Z,1.67
2017-03-25T05:50:57.837Z,1.75
2017-03-25T05:51:58.189Z,2.05
2017-03-25T05:52:58.498Z,1.62
2017-03-25T05:53:58.538Z,1.85
2017-03-25T05:54:58.819Z,1.57
2017-03-25T05:55:59.259Z,1.55
2017-03-25T05:57:12.034Z,1.73
2017-03-25T05:58:12.385Z,1.73
2017-03-25T05:59:12.782Z,1.57
2017-03-25T06:00:13.113Z,1.45
2017-03-25T06:01:13.466Z,1.52
2017-03-25T06:02:17.896Z,1.62
2017-03-25T06:03:18.147Z,2.25
2017-03-25T06:04:18.353Z,1.67
2017-03-25T06:05:19.132Z,2.08
2017-03-25T06:06:19.311Z,1.97
2017-03-25T06:07:19.442Z,1.75
2017-03-25T06:08:19.554Z,1.82
2017-03-25T06:09:20.768Z,0.98
2017-03-25T06:10:21.807Z,1.72
2017-03-25T06:11:22.191Z,1.50
2017-03-25T06:12:23.094Z,1.57
2017-03-25T06:13:23.436Z,1.50
2017-03-25T06:14:23.625Z,1.58
2017-03-25T06:15:23.959Z,1.47
2017-03-25T06:16:24.070Z,1.75
2017-03-25T06:17:24.310Z,2.15
2017-03-25T06:18:24.456Z,1.78
2017-03-25T06:19:24.641Z,1.93
2017-03-25T06:20:24.744Z,2.43
2017-03-25T06:21:25.161Z,1.42
2017-03-25T06:22:26.029Z,1.72
2017-03-25T06:23:26.291Z,1.73
2017-03-25T06:24:26.991Z,1.47
2017-03-25T06:25:26.928Z,1.53
2017-03-25T06:26:26.900Z,1.27
2017-03-25T06:27:27.039Z,1.45
2017-03-25T06:28:31.171Z,1.60
2017-03-25T06:29:31.495Z,1.58
2017-03-25T06:30:31.871Z,1.52
2017-03-25T06:31:31.775Z,1.50
2017-03-25T06:32:31.943Z,1.57
2017-03-25T06:33:32.284Z,1.85
2017-03-25T06:34:32.593Z,1.68
2017-03-25T06:35:32.882Z,1.38
2017-03-25T06:36:33.045Z,1.42
2017-03-25T06:37:34.054Z,1.78
2017-03-25T06:38:34.311Z,1.58
2017-03-25T06:39:34.429Z,1.88
2017-03-25T06:40:34.863Z,1.73
2017-03-25T06:41:35.111Z,1.07
2017-03-25T06:42:35.337Z,2.03
2017-03-25T06:43:35.657Z,1.88
2017-03-25T06:44:41.006Z,1.85
2017-03-25T06:45:41.351Z,1.10
2017-03-25T06:46:41.847Z,2.07
2017-03-25T06:47:42.208Z,2.27
2017-03-25T06:48:43.097Z,1.33
2017-03-25T06:49:43.407Z,1.70
2017-03-25T06:50:43.823Z,1.60
2017-03-25T06:51:44.124Z,1.53
2017-03-25T06:52:44.372Z,1.45
2017-03-25T06:53:44.853Z,1.25
2017-03-25T06:54:44.859Z,1.13
2017-03-25T06:55:45.089Z,1.72
2017-03-25T06:56:45.316Z,1.65
2017-03-25T06:57:45.570Z,1.70
2017-03-25T06:58:45.715Z,1.90
2017-03-25T06:59:46.155Z,1.55
2017-03-25T07:00:46.550Z,1.52
2017-03-25T07:01:46.869Z,2.60
2017-03-25T07:02:47.033Z,1.80
2017-03-25T07:03:47.260Z,1.43
2017-03-25T07:04:47.409Z,1.38
2017-03-25T07:05:47.694Z,2.08
2017-03-25T07:06:47.979Z,1.85
2017-03-25T07:07:48.271Z,1.80
2017-03-25T07:08:48.572Z,1.60
2017-03-25T07:09:48.857Z,1.50
2017-03-25T07:10:49.118Z,1.98
2017-03-25T07:11:49.514Z,2.02
2017-03-25T07:12:49.662Z,1.67
2017-03-25T07:13:50.695Z,1.60
2017-03-25T07:14:50.888Z,2.27
2017-03-25T07:15:50.820Z,1.72
2017-03-25T07:16:51.188Z,1.65
2017-03-25T07:17:51.115Z,2.25
2017-03-25T07:18:51.302Z,1.85
2017-03-25T07:19:51.597Z,1.45
2017-03-25T07:20:51.907Z,1.80
2017-03-25T07:21:51.890Z,1.40
2017-03-25T07:22:52.092Z,2.00
2017-03-25T07:23:52.551Z,1.48
2017-03-25T07:24:52.944Z,1.80
2017-03-25T07:25:53.249Z,1.40
2017-03-25T07:26:53.457Z,1.53
2017-03-25T07:27:53.341Z,1.65
2017-03-25T07:28:53.476Z,1.17
2017-03-25T07:29:53.447Z,1.02
2017-03-25T07:30:54.336Z,1.75
2017-03-25T07:31:54.504Z,1.50
2017-03-25T07:32:54.686Z,1.65
2017-03-25T07:33:54.846Z,1.62
2017-03-25T07:34:55.059Z,1.80
2017-03-25T07:35:55.355Z,1.75
2017-03-25T07:36:55.492Z,1.30
2017-03-25T07:37:55.560Z,1.42
2017-03-25T07:38:55.694Z,2.55
2017-03-25T07:39:55.858Z,1.80
2017-03-25T07:40:56.137Z,1.80
2017-03-25T07:41:56.494Z,1.78
2017-03-25T07:42:56.446Z,2.93
2017-03-25T07:43:56.328Z,1.60
2017-03-25T07:44:56.372Z,3.83
2017-03-25T07:45:56.481Z,1.90
2017-03-25T07:46:56.596Z,1.67
2017-03-25T07:47:56.705Z,3.40
2017-03-25T07:48:56.682Z,3.78
2017-03-25T07:49:56.867Z,3.95
2017-03-25T07:50:56.870Z,2.65
2017-03-25T07:51:57.107Z,3.45
2017-03-25T07:52:57.224Z,2.90
2017-03-25T07:53:57.261Z,2.62
2017-03-25T07:54:57.362Z,3.15
2017-03-25T07:55:57.372Z,2.42
2017-03-25T07:56:57.399Z,5.00
2017-03-25T07:57:57.318Z,3.80
2017-03-25T07:58:57.276Z,3.93
2017-03-25T07:59:57.177Z,1.85
2017-03-25T08:00:57.188Z,2.55
2017-03-25T08:01:57.289Z,2.20
2017-03-25T08:02:57.420Z,2.25
2017-03-25T08:03:57.477Z,1.93
2017-03-25T08:04:57.919Z,2.50
2017-03-25T08:05:57.932Z,2.40
2017-03-25T08:06:58.076Z,2.30
2017-03-25T08:07:58.337Z,1.92
2017-03-25T08:08:58.445Z,2.90
2017-03-25T08:09:58.761Z,2.05
2017-03-25T08:10:58.682Z,2.58
2017-03-25T08:11:59.051Z,2.63
2017-03-25T08:12:59.944Z,1.62
2017-03-25T08:14:00.231Z,1.98
2017-03-25T08:15:00.670Z,1.50
2017-03-25T08:16:01.020Z,1.33
2017-03-25T08:17:01.233Z,1.67
2017-03-25T08:18:01.350Z,1.88
2017-03-25T08:19:01.669Z,2.13
2017-03-25T08:20:01.803Z,2.45
2017-03-25T08:21:01.975Z,2.65
2017-03-25T08:22:02.357Z,1.47
2017-03-25T08:23:02.597Z,1.57
2017-03-25T08:24:02.901Z,2.20
2017-03-25T08:25:03.028Z,1.63
2017-03-25T08:26:03.241Z,2.45
2017-03-25T08:27:03.483Z,1.77
2017-03-25T08:28:03.727Z,2.25
2017-03-25T08:29:03.884Z,1.82
2017-03-25T08:30:04.040Z,4.33
2017-03-25T08:31:04.421Z,1.38
2017-03-25T08:32:04.792Z,2.02
2017-03-25T08:33:05.065Z,2.27
2017-03-25T08:34:05.219Z,1.78
2017-03-25T08:35:06.207Z,2.18
2017-03-25T08:36:06.259Z,2.33
2017-03-25T08:37:06.432Z,1.90
2017-03-25T08:38:06.660Z,3.05
2017-03-25T08:39:06.884Z,1.98
2017-03-25T08:40:08.480Z,1.85
2017-03-25T08:41:08.556Z,2.02
2017-03-25T08:42:08.795Z,2.18
2017-03-25T08:43:08.883Z,1.95
2017-03-25T08:44:09.156Z,1.47
2017-03-25T08:45:09.468Z,1.60
2017-03-25T08:46:09.656Z,1.90
2017-03-25T08:47:14.036Z,1.87
2017-03-25T08:48:14.371Z,2.18
2017-03-25T08:49:24.126Z,2.12
2017-03-25T08:50:27.263Z,2.77
2017-03-25T08:51:31.248Z,1.85
2017-03-25T08:52:32.397Z,1.85
2017-03-25T08:53:32.672Z,1.93
2017-03-25T08:54:32.719Z,2.40
2017-03-25T08:55:32.883Z,3.45
2017-03-25T08:57:48.395Z,3.70
2017-03-25T08:58:49.288Z,3.68
2017-03-25T08:59:51.084Z,3.18
2017-03-25T09:00:51.299Z,2.50
2017-03-25T09:01:51.678Z,5.28
2017-03-25T09:02:52.373Z,6.07
2017-03-25T09:03:52.742Z,4.00
2017-03-25T09:04:53.078Z,3.45
2017-03-25T09:05:53.437Z,3.60
2017-03-25T09:06:53.815Z,4.53
2017-03-25T09:07:54.164Z,3.23
2017-03-25T09:08:54.407Z,5.67
2017-03-25T09:09:54.558Z,4.05
2017-03-25T09:10:55.087Z,2.83
2017-03-25T09:11:55.476Z,2.98
2017-03-25T09:13:04.689Z,6.45
2017-03-25T09:14:07.884Z,2.55
2017-03-25T09:15:15.565Z,4.37
2017-03-25T09:16:26.860Z,3.08
2017-03-25T09:17:27.958Z,2.93
2017-03-25T09:18:28.216Z,2.55
2017-03-25T09:19:28.364Z,6.18
2017-03-25T09:20:28.752Z,4.62
2017-03-25T09:21:28.696Z,2.05
2017-03-25T09:22:29.045Z,2.07
2017-03-25T09:23:28.958Z,1.63
2017-03-25T09:24:28.926Z,4.27
2017-03-25T09:25:28.927Z,5.07
2017-03-25T09:26:29.028Z,6.15
2017-03-25T09:27:29.307Z,3.62
2017-03-25T09:28:29.689Z,2.97
2017-03-25T09:29:29.595Z,2.03
2017-03-25T09:30:29.868Z,4.48
2017-03-25T09:31:30.125Z,3.35
2017-03-25T09:32:30.383Z,3.60
2017-03-25T09:33:30.682Z,4.50
2017-03-25T09:34:30.823Z,2.67
2017-03-25T09:35:31.244Z,1.98
2017-03-25T09:36:31.265Z,2.75
2017-03-25T09:37:31.601Z,2.40
2017-03-25T09:38:31.846Z,2.93
2017-03-25T09:39:32.734Z,4.60
2017-03-25T09:40:32.990Z,3.62
2017-03-25T09:41:33.851Z,2.28
2017-03-25T09:42:36.839Z,2.75
2017-03-25T09:43:37.061Z,5.75
2017-03-25T09:44:37.206Z,2.78
2017-03-25T09:45:37.606Z,3.83
2017-03-25T09:46:38.142Z,2.07
2017-03-25T09:47:38.434Z,1.58
2017-03-25T09:48:38.404Z,2.15
2017-03-25T09:49:38.468Z,2.67
2017-03-25T09:50:39.632Z,2.38
2017-03-25T09:51:39.858Z,2.22
2017-03-25T09:52:39.945Z,3.13
2017-03-25T09:53:40.197Z,3.82
2017-03-25T09:54:40.426Z,3.20
2017-03-25T09:55:40.747Z,4.63
2017-03-25T09:56:41.170Z,4.08
2017-03-25T09:57:41.547Z,6.43
2017-03-25T09:58:41.662Z,5.70
2017-03-25T09:59:41.905Z,6.37
2017-03-25T10:00:42.305Z,5.75
2017-03-25T10:01:42.377Z,6.12
2017-03-25T10:02:42.802Z,5.15
2017-03-25T10:03:43.016Z,5.92
2017-03-25T10:04:43.301Z,6.27
2017-03-25T10:05:43.541Z,9.43
2017-03-25T10:06:43.704Z,7.03
2017-03-25T10:07:43.942Z,9.17
2017-03-25T10:08:44.077Z,7.62
2017-03-25T10:09:44.483Z,6.87
2017-03-25T10:10:44.649Z,5.33
2017-03-25T10:11:44.842Z,8.87
2017-03-25T10:12:45.281Z,5.53
2017-03-25T10:13:46.084Z,4.93
2017-03-25T10:14:46.476Z,8.00
2017-03-25T10:15:46.882Z,6.03
2017-03-25T10:16:47.078Z,6.87
2017-03-25T10:17:47.211Z,8.90
2017-03-25T10:18:47.460Z,6.25
2017-03-25T10:19:47.671Z,7.97
2017-03-25T10:20:47.848Z,7.58
2017-03-25T10:21:48.261Z,9.07
2017-03-25T10:22:48.214Z,3.57
2017-03-25T10:23:49.275Z,4.85
2017-03-25T10:24:49.531Z,3.97
2017-03-25T10:25:49.738Z,3.92
2017-03-25T10:26:54.852Z,7.35
2017-03-25T10:27:55.442Z,8.23
2017-03-25T10:28:55.612Z,5.08
2017-03-25T10:29:55.882Z,6.03
2017-03-25T10:30:56.134Z,5.50
2017-03-25T10:31:56.207Z,6.33
2017-03-25T10:32:56.387Z,4.97
2017-03-25T10:33:56.741Z,4.03
2017-03-25T10:34:57.010Z,4.93
2017-03-25T10:35:57.220Z,4.60
2017-03-25T10:36:57.353Z,2.85
2017-03-25T10:37:57.410Z,7.45
2017-03-25T10:38:57.619Z,5.65
2017-03-25T10:39:57.610Z,3.38
2017-03-25T10:40:58.011Z,7.22
2017-03-25T10:41:58.479Z,5.03
2017-03-25T10:42:59.594Z,3.52
2017-03-25T10:44:00.525Z,4.20
2017-03-25T10:45:00.578Z,5.32
2017-03-25T10:46:00.870Z,7.13
2017-03-25T10:47:01.047Z,3.82
2017-03-25T10:48:01.371Z,3.40
2017-03-25T10:49:01.573Z,5.43
2017-03-25T10:50:01.620Z,5.52
2017-03-25T10:51:01.837Z,3.93
2017-03-25T10:52:02.126Z,3.83
2017-03-25T10:53:02.482Z,3.43
2017-03-25T10:54:02.524Z,4.90
2017-03-25T10:55:02.695Z,4.23
2017-03-25T10:56:03.092Z,5.97
2017-03-25T10:57:03.384Z,4.30
2017-03-25T10:58:03.653Z,4.57
2017-03-25T10:59:03.922Z,3.53
2017-03-25T11:00:04.348Z,4.98
2017-03-25T11:01:04.494Z,3.35
2017-03-25T11:02:04.604Z,4.33
2017-03-25T11:03:04.952Z,3.35
2017-03-25T11:04:05.172Z,4.18
2017-03-25T11:05:05.465Z,4.37
2017-03-25T11:06:05.641Z,4.77
2017-03-25T11:07:05.822Z,7.30
2017-03-25T11:08:06.138Z,3.95
2017-03-25T11:09:06.408Z,4.03
2017-03-25T11:10:06.623Z,4.53
2017-03-25T11:11:06.839Z,2.72
2017-03-25T11:12:07.074Z,6.37
2017-03-25T11:13:06.993Z,5.13
2017-03-25T11:14:07.146Z,4.67
2017-03-25T11:15:07.382Z,4.42
2017-03-25T11:16:07.530Z,3.50
2017-03-25T11:17:07.620Z,4.27
2017-03-25T11:18:07.796Z,3.52
2017-03-25T11:19:08.148Z,4.45
2017-03-25T11:20:08.312Z,3.13
2017-03-25T11:21:08.621Z,2.68
2017-03-25T11:22:08.677Z,4.08
2017-03-25T11:23:09.668Z,3.87
2017-03-25T11:24:09.932Z,3.63
2017-03-25T11:25:10.073Z,2.80
2017-03-25T11:26:10.289Z,3.17
2017-03-25T11:27:10.602Z,3.83
2017-03-25T11:28:10.746Z,2.65
2017-03-25T11:29:10.931Z,4.73
2017-03-25T11:30:10.934Z,5.13
2017-03-25T11:31:11.124Z,5.97
2017-03-25T11:32:11.273Z,4.93
2017-03-25T11:33:11.590Z,5.90
2017-03-25T11:34:11.741Z,2.88
2017-03-25T11:35:11.882Z,4.68
2017-03-25T11:36:12.274Z,3.98
2017-03-25T11:37:12.502Z,2.67
2017-03-25T11:38:12.529Z,5.27
2017-03-25T11:39:12.824Z,3.72
2017-03-25T11:40:13.092Z,4.13
2017-03-25T11:41:13.305Z,2.60
2017-03-25T11:42:13.789Z,3.95
2017-03-25T11:43:14.011Z,2.13
2017-03-25T11:44:14.155Z,3.47
2017-03-25T11:45:14.278Z,3.02
2017-03-25T11:46:14.417Z,8.87
2017-03-25T11:47:14.588Z,6.47
2017-03-25T11:48:14.877Z,3.95
2017-03-25T11:49:15.078Z,14.53
2017-03-25T11:50:15.330Z,4.50
2017-03-25T11:51:15.634Z,7.72
2017-03-25T11:52:15.754Z,7.72
2017-03-25T11:53:15.908Z,6.62
2017-03-25T11:54:16.205Z,7.92
2017-03-25T11:55:16.417Z,10.92
2017-03-25T11:56:16.547Z,9.00
2017-03-25T11:57:16.562Z,12.78
2017-03-25T11:58:16.704Z,10.13
2017-03-25T11:59:16.803Z,8.62
2017-03-25T12:00:16.939Z,13.28
2017-03-25T12:01:17.067Z,11.52
2017-03-25T12:02:17.301Z,7.63
2017-03-25T12:03:17.637Z,7.37
2017-03-25T12:04:18.033Z,11.35
2017-03-25T12:05:19.006Z,11.60
2017-03-25T12:06:19.111Z,11.85
2017-03-25T12:07:19.255Z,9.63
2017-03-25T12:08:19.436Z,6.60
2017-03-25T12:09:19.536Z,14.80
2017-03-25T12:10:19.712Z,13.10
2017-03-25T12:11:20.100Z,10.25
2017-03-25T12:12:20.393Z,11.15
2017-03-25T12:13:20.498Z,10.73
2017-03-25T12:14:20.618Z,10.93
2017-03-25T12:15:20.836Z,13.90
2017-03-25T12:16:21.019Z,11.87
2017-03-25T12:17:21.178Z,10.83
2017-03-25T12:18:21.489Z,9.68
2017-03-25T12:19:21.870Z,12.47
2017-03-25T12:20:21.973Z,10.05
2017-03-25T12:21:22.337Z,8.53
2017-03-25T12:22:22.301Z,12.70
2017-03-25T12:23:22.505Z,10.25
2017-03-25T12:24:22.865Z,10.52
2017-03-25T12:25:23.051Z,11.42
2017-03-25T12:26:23.346Z,9.57
2017-03-25T12:27:23.486Z,11.08
2017-03-25T12:28:25.191Z,9.02
2017-03-25T12:29:25.570Z,8.20
2017-03-25T12:30:25.608Z,9.13
2017-03-25T12:31:25.836Z,6.97
2017-03-25T12:32:26.137Z,8.77
2017-03-25T12:33:26.362Z,9.23
2017-03-25T12:34:26.594Z,7.82
2017-03-25T12:35:26.814Z,9.42
2017-03-25T12:36:26.910Z,7.08
2017-03-25T12:37:26.961Z,7.57
2017-03-25T12:38:27.232Z,7.60
2017-03-25T12:39:27.385Z,8.40
2017-03-25T12:40:27.517Z,6.87
2017-03-25T12:41:27.563Z,7.70
2017-03-25T12:42:27.668Z,8.38
2017-03-25T12:43:27.841Z,7.42
2017-03-25T12:44:28.004Z,9.53
2017-03-25T12:45:28.128Z,7.35
2017-03-25T12:46:28.124Z,7.38
2017-03-25T12:47:28.456Z,5.87
2017-03-25T12:48:28.458Z,8.68
2017-03-25T12:49:28.481Z,8.90
2017-03-25T12:50:28.494Z,16.30
2017-03-25T12:51:28.638Z,8.33
2017-03-25T12:52:28.838Z,8.65
2017-03-25T12:53:29.053Z,7.00
2017-03-25T12:54:29.392Z,7.43
2017-03-25T12:55:29.709Z,9.22
2017-03-25T12:56:29.961Z,13.63
2017-03-25T12:57:31.517Z,7.43
2017-03-25T12:58:31.771Z,9.87
2017-03-25T12:59:31.795Z,9.13
2017-03-25T13:00:32.011Z,9.40
2017-03-25T13:01:32.209Z,10.05
2017-03-25T13:02:32.556Z,9.15
2017-03-25T13:03:39.289Z,8.10
2017-03-25T13:04:39.723Z,8.43
2017-03-25T13:05:39.908Z,8.35
2017-03-25T13:06:40.131Z,7.57
2017-03-25T13:07:40.174Z,6.87
2017-03-25T13:08:40.322Z,11.32
2017-03-25T13:09:40.578Z,7.03
2017-03-25T13:10:40.855Z,9.95
2017-03-25T13:11:41.194Z,7.33
2017-03-25T13:12:41.585Z,7.55
2017-03-25T13:13:41.879Z,8.25
2017-03-25T13:14:43.475Z,7.50
2017-03-25T13:15:43.634Z,8.10
2017-03-25T13:16:43.849Z,7.37
2017-03-25T13:17:44.041Z,10.12
2017-03-25T13:18:44.402Z,8.32
2017-03-25T13:19:44.883Z,11.05
2017-03-25T13:20:45.144Z,12.27
2017-03-25T13:21:45.269Z,6.72
2017-03-25T13:22:45.421Z,6.98
2017-03-25T13:23:45.533Z,9.60
2017-03-25T13:24:45.761Z,7.50